Time;durP1;ratioP1;P1;durP2;ratioP2;P2;SDS_P1;SDS_P2;PMS_P1;PMS_P2;Temp;Humidity;BMP_temperature;BMP_pressure;BME280_temperature;BME280_humidity;BME280_pressure;Samples;Min_cycle;Max_cycle;Signal;HPM_P1;HPM_P2
2023/09/03 06:13:44;;;;;;;;;;;;;;;22.08;64.67;97596.19;4248128;27;11084;-65
2023/09/03 06:15:47;;;;;;;;;;;;;;;22.37;64.05;97604.94;4246837;27;5659;-65
2023/09/03 06:17:53;;;;;;;;;;;;;;;22.59;63.85;97601.44;4246655;27;5621;-65
2023/09/03 06:19:56;;;;;;;;;;;;;;;22.77;62.95;97606.53;4245630;27;5643;-66
2023/09/03 06:21:59;;;;;;;;;;;;;;;22.93;62.63;97613.75;4240083;27;5931;-65
2023/09/03 06:24:02;;;;;;;;;;;;;;;23.07;62.46;97607.97;4239040;27;5862;-65
2023/09/03 06:26:05;;;;;;;;;;;;;;;23.18;61.97;97618.59;4248625;27;5598;-65
2023/09/03 06:28:07;;;;;;;;;;;;;;;23.28;61.71;97617.91;4237862;27;6371;-65
2023/09/03 06:30:12;;;;;;;;;;;;;;;23.36;61.44;97619.34;4230225;27;5720;-65
2023/09/03 06:32:15;;;;;;;;;;;;;;;23.42;61.42;97621.81;4230261;27;5795;-65
2023/09/03 06:34:20;;;;;;;;;;;;;;;23.48;60.51;97626.22;4232334;27;5677;-65
2023/09/03 06:36:23;;;;;;;;;;;;;;;23.53;60.39;97622.72;4228932;27;7691;-65
2023/09/03 06:38:26;;;;;;;;;;;;;;;23.57;60.26;97626.56;4230623;27;5714;-62
2023/09/03 06:40:29;;;;;;;;;;;;;;;23.62;60.21;97623.13;4232111;27;5740;-63
2023/09/03 06:42:32;;;;;;;;;;;;;;;23.66;60.09;97626.91;4230754;27;6607;-62
2023/09/03 06:44:35;;;;;;;;;;;;;;;23.68;59.76;97636.41;4226872;27;5736;-63
2023/09/03 06:46:39;;;;;;;;;;;;;;;23.72;59.44;97639.41;4226194;27;5747;-62
2023/09/03 06:48:42;;;;;;;;;;;;;;;23.76;59.18;97643.22;4214908;27;6944;-62
2023/09/03 06:50:44;;;;;;;;;;;;;;;23.78;59.14;97647.31;4229836;27;5673;-63
2023/09/03 06:52:48;;;;;;;;;;;;;;;23.79;59.19;97646.22;4233647;27;5733;-63
2023/09/03 06:54:50;;;;;;;;;;;;;;;23.82;59.12;97653.00;4234210;27;5778;-63
2023/09/03 06:56:53;;;;;;;;;;;;;;;23.85;58.75;97654.34;4230617;27;6568;-63
2023/09/03 06:58:56;;;;;;;;;;;;;;;23.87;59.00;97652.22;4232669;27;5740;-63
2023/09/03 07:00:59;;;;;;;;;;;;;;;23.89;58.74;97655.47;4234774;27;5900;-62
2023/09/03 07:03:03;;;;;;;;;;;;;;;23.91;58.51;97656.84;4234030;27;5620;-63
2023/09/03 07:05:07;;;;;;;;;;;;;;;23.93;58.07;97653.91;4236317;27;5657;-63
2023/09/03 07:07:10;;;;;;;;;;;;;;;23.94;58.29;97661.72;4233932;27;6095;-65
2023/09/03 07:09:12;;;;;;;;;;;;;;;23.97;58.11;97663.09;4232703;27;5774;-64
2023/09/03 07:11:16;;;;;;;;;;;;;;;23.99;58.12;97669.06;4233897;27;5780;-65
2023/09/03 07:13:18;;;;;;;;;;;;;;;24.00;57.89;97665.28;4230417;27;5799;-64
2023/09/03 07:15:21;;;;;;;;;;;;;;;24.02;57.87;97665.84;4230943;28;5832;-64
2023/09/03 07:17:24;;;;;;;;;;;;;;;24.02;57.79;97669.38;4236416;28;5681;-64
2023/09/03 07:19:28;;;;;;;;;;;;;;;24.05;57.30;97676.13;4236091;28;5742;-64
2023/09/03 07:21:31;;;;;;;;;;;;;;;24.06;57.70;97672.34;4236285;28;5856;-64
2023/09/03 07:23:34;;;;;;;;;;;;;;;24.06;57.34;97675.06;4236148;28;5652;-62
2023/09/03 07:25:37;;;;;;;;;;;;;;;24.08;56.90;97664.81;4236368;28;5647;-62
2023/09/03 07:27:40;;;;;;;;;;;;;;;24.08;57.25;97672.91;4227689;28;5088;-63
2023/09/03 07:29:43;;;;;;;;;;;;;;;24.07;56.69;97679.38;4236106;28;5639;-63
2023/09/03 07:31:46;;;;;;;;;;;;;;;24.08;56.74;97683.72;4235994;28;5696;-63
2023/09/03 07:33:49;;;;;;;;;;;;;;;24.09;57.19;97688.84;4235854;28;5648;-62
2023/09/03 07:35:53;;;;;;;;;;;;;;;24.12;57.11;97690.22;4231407;28;5594;-62
2023/09/03 07:37:56;;;;;;;;;;;;;;;24.14;56.90;97682.69;4226711;28;5583;-63
2023/09/03 07:39:58;;;;;;;;;;;;;;;24.14;56.76;97682.69;4228817;28;5764;-62
2023/09/03 07:42:01;;;;;;;;;;;;;;;24.13;56.64;97683.78;4228992;28;5699;-63
2023/09/03 07:44:04;;;;;;;;;;;;;;;24.09;56.22;97682.63;4226122;28;5665;-63
2023/09/03 07:46:07;;;;;;;;;;;;;;;24.10;56.35;97682.38;4226973;28;5667;-62
2023/09/03 07:48:10;;;;;;;;;;;;;;;24.13;56.43;97680.25;4223897;28;5647;-63
2023/09/03 07:50:13;;;;;;;;;;;;;;;24.14;56.19;97682.69;4229580;28;5746;-63
2023/09/03 07:52:17;;;;;;;;;;;;;;;24.18;55.96;97682.97;4230365;28;5605;-63
2023/09/03 07:54:20;;;;;;;;;;;;;;;24.18;55.99;97691.91;4227249;28;6416;-62
2023/09/03 07:56:23;;;;;;;;;;;;;;;24.15;56.32;97695.13;4224900;28;5759;-63
2023/09/03 07:58:26;;;;;;;;;;;;;;;24.14;56.05;97690.81;4226093;28;5632;-63
2023/09/03 08:00:29;;;;;;;;;;;;;;;24.16;56.11;97688.66;4223688;28;5811;-63
2023/09/03 08:02:31;;;;;;;;;;;;;;;24.17;56.09;97695.69;4230870;28;5597;-63
2023/09/03 08:04:34;;;;;;;;;;;;;;;24.18;56.24;97694.59;4231564;28;5685;-63
2023/09/03 08:06:37;;;;;;;;;;;;;;;24.21;55.93;97701.38;4222931;28;5662;-63
2023/09/03 08:08:41;;;;;;;;;;;;;;;24.21;56.06;97702.19;4214678;28;5676;-63
2023/09/03 08:10:44;;;;;;;;;;;;;;;24.23;55.88;97713.53;4226501;28;5677;-63
2023/09/03 08:12:47;;;;;;;;;;;;;;;24.24;56.00;97709.78;4225387;28;5804;-63
2023/09/03 08:14:50;;;;;;;;;;;;;;;24.24;55.67;97715.19;4226542;28;5865;-63
2023/09/03 08:16:53;;;;;;;;;;;;;;;24.26;56.00;97714.94;4225922;28;5711;-63
2023/09/03 08:18:56;;;;;;;;;;;;;;;24.25;55.92;97711.41;4225745;28;5089;-63
2023/09/03 08:20:59;;;;;;;;;;;;;;;24.23;55.70;97713.53;4230992;28;5964;-63
2023/09/03 08:23:02;;;;;;;;;;;;;;;24.22;55.37;97708.41;4230553;28;5651;-63
2023/09/03 08:25:07;;;;;;;;;;;;;;;24.23;55.42;97710.03;4228538;28;5741;-63
2023/09/03 08:27:10;;;;;;;;;;;;;;;24.23;55.23;97708.13;4230400;28;6286;-63
2023/09/03 08:29:13;;;;;;;;;;;;;;;24.26;55.30;97712.22;4224473;28;5669;-64
2023/09/03 08:31:16;;;;;;;;;;;;;;;24.26;55.19;97709.53;4228244;28;5816;-63
2023/09/03 08:33:19;;;;;;;;;;;;;;;24.28;55.58;97719.00;4223295;28;5743;-63
2023/09/03 08:35:22;;;;;;;;;;;;;;;24.28;55.38;97721.69;4232966;28;5591;-63
2023/09/03 08:37:28;;;;;;;;;;;;;;;24.30;55.36;97713.34;4229118;28;5646;-64
2023/09/03 08:39:31;;;;;;;;;;;;;;;24.31;55.37;97726.63;4223773;28;5683;-63
2023/09/03 08:41:39;;;;;;;;;;;;;;;24.34;55.04;97720.69;4231125;28;5671;-64
2023/09/03 08:43:43;;;;;;;;;;;;;;;24.38;55.15;97721.81;4230624;28;5657;-63
2023/09/03 08:45:51;;;;;;;;;;;;;;;24.39;55.31;97723.44;4234776;28;5660;-63
2023/09/03 08:47:55;;;;;;;;;;;;;;;24.43;54.94;97720.22;4235033;28;5590;-63
2023/09/03 08:49:59;;;;;;;;;;;;;;;24.44;54.85;97719.94;4234900;28;5610;-63
2023/09/03 08:52:02;;;;;;;;;;;;;;;24.47;55.28;97715.94;4235078;28;5602;-64
2023/09/03 08:54:06;;;;;;;;;;;;;;;24.47;55.08;97715.94;4226453;28;5652;-63
2023/09/03 08:56:09;;;;;;;;;;;;;;;24.49;54.92;97717.31;4234851;28;5807;-63
2023/09/03 08:58:15;;;;;;;;;;;;;;;24.51;54.98;97717.03;4226255;28;5648;-63
2023/09/03 09:00:18;;;;;;;;;;;;;;;24.50;54.66;97708.13;4234911;28;5655;-63
2023/09/03 09:02:23;;;;;;;;;;;;;;;24.52;54.62;97707.84;4234640;28;5702;-63
2023/09/03 09:04:29;;;;;;;;;;;;;;;24.54;54.48;97706.50;4234564;28;5653;-63
2023/09/03 09:06:33;;;;;;;;;;;;;;;24.53;54.44;97701.38;4234854;28;5646;-63
2023/09/03 09:08:36;;;;;;;;;;;;;;;24.53;54.39;97699.47;4234571;28;5601;-63
2023/09/03 09:10:47;;;;;;;;;;;;;;;24.53;54.54;97701.38;4234633;28;5634;-63
2023/09/03 09:12:56;;;;;;;;;;;;;;;24.52;54.42;97695.16;4226064;28;6778;-63
2023/09/03 09:15:03;;;;;;;;;;;;;;;24.54;54.59;97697.59;4229016;28;6553;-63
2023/09/03 09:17:12;;;;;;;;;;;;;;;24.56;54.54;97706.25;4234653;28;5652;-64
2023/09/03 09:19:17;;;;;;;;;;;;;;;24.56;54.32;97704.34;4232260;28;5834;-63
2023/09/03 09:21:20;;;;;;;;;;;;;;;24.57;54.43;97697.06;4228835;28;5737;-63
2023/09/03 09:23:24;;;;;;;;;;;;;;;24.58;54.54;97707.63;4228505;28;5655;-63
2023/09/03 09:25:27;;;;;;;;;;;;;;;24.59;54.19;97705.75;4234528;28;5644;-63
2023/09/03 09:27:30;;;;;;;;;;;;;;;24.61;54.38;97703.59;4225985;28;5610;-63
2023/09/03 09:29:33;;;;;;;;;;;;;;;24.65;53.97;97704.69;4232398;28;5593;-63
2023/09/03 09:31:37;;;;;;;;;;;;;;;24.64;53.95;97698.47;4223383;28;5919;-63
2023/09/03 09:33:51;;;;;;;;;;;;;;;24.67;54.12;97697.13;4230970;28;5684;-63
2023/09/03 09:35:54;;;;;;;;;;;;;;;24.66;53.79;97703.59;4232629;28;5602;-63
2023/09/03 09:38:04;;;;;;;;;;;;;;;24.67;54.09;97697.13;4233829;28;5657;-63
2023/09/03 09:40:09;;;;;;;;;;;;;;;24.67;53.60;97702.53;4228091;28;5761;-64
2023/09/03 09:42:14;;;;;;;;;;;;;;;24.69;53.43;97700.41;4233194;28;5715;-65
2023/09/03 09:44:18;;;;;;;;;;;;;;;24.69;53.70;97705.81;4234202;28;5590;-64
2023/09/03 09:46:29;;;;;;;;;;;;;;;24.68;53.64;97699.56;4234277;28;5639;-64
2023/09/03 09:48:33;;;;;;;;;;;;;;;24.69;53.70;97697.69;4231171;28;5606;-65
2023/09/03 09:50:36;;;;;;;;;;;;;;;24.72;53.55;97688.25;4234199;28;5714;-64
2023/09/03 09:52:40;;;;;;;;;;;;;;;24.74;53.65;97692.31;4234139;28;5738;-64
2023/09/03 09:54:43;;;;;;;;;;;;;;;24.72;53.83;97694.47;4234299;28;5119;-66
2023/09/03 09:56:46;;;;;;;;;;;;;;;24.69;53.78;97692.28;4234184;28;5668;-64
2023/09/03 09:58:52;;;;;;;;;;;;;;;24.69;53.61;97686.88;4234300;28;5673;-64
2023/09/03 10:00:55;;;;;;;;;;;;;;;24.70;53.79;97683.09;4234253;27;5597;-64
2023/09/03 10:02:58;;;;;;;;;;;;;;;24.73;53.77;97677.16;4233831;28;5648;-64
2023/09/03 10:05:09;;;;;;;;;;;;;;;24.76;53.42;97673.94;4222157;28;5605;-64
2023/09/03 10:07:13;;;;;;;;;;;;;;;24.78;53.14;97677.19;4229610;28;5868;-64
2023/09/03 10:09:16;;;;;;;;;;;;;;;24.81;52.68;97676.66;4224745;28;5623;-63
2023/09/03 10:11:19;;;;;;;;;;;;;;;24.81;52.89;97676.66;4227780;28;5756;-64
2023/09/03 10:13:21;;;;;;;;;;;;;;;24.81;53.02;97665.84;4231884;28;5665;-64
2023/09/03 10:15:30;;;;;;;;;;;;;;;24.82;52.71;97664.78;4231371;28;5628;-62
2023/09/03 10:17:35;;;;;;;;;;;;;;;24.84;52.72;97651.81;4233936;28;5657;-64
2023/09/03 10:19:50;;;;;;;;;;;;;;;24.83;52.27;97652.88;4233869;28;5660;-63
2023/09/03 10:21:55;;;;;;;;;;;;;;;24.82;52.55;97648.56;4227460;28;5742;-63
2023/09/03 10:24:00;;;;;;;;;;;;;;;24.81;52.29;97651.53;4234131;28;5759;-64
2023/09/03 10:26:05;;;;;;;;;;;;;;;24.86;52.67;97662.34;4229891;28;5680;-64
2023/09/03 10:28:09;;;;;;;;;;;;;;;24.89;52.58;97661.81;4234120;28;5667;-63
2023/09/03 10:30:17;;;;;;;;;;;;;;;24.88;52.26;97655.59;4234047;28;5643;-62
2023/09/03 10:32:21;;;;;;;;;;;;;;;24.89;52.68;97651.00;4227961;27;5693;-63
2023/09/03 10:34:24;;;;;;;;;;;;;;;24.90;52.33;97658.03;4206974;28;5632;-63
2023/09/03 10:36:27;;;;;;;;;;;;;;;24.92;52.14;97656.72;4233874;28;5672;-64
2023/09/03 10:38:31;;;;;;;;;;;;;;;24.93;52.49;97663.75;4233893;28;6365;-63
2023/09/03 10:40:34;;;;;;;;;;;;;;;24.93;51.97;97658.34;4226247;28;5689;-63
2023/09/03 10:42:36;;;;;;;;;;;;;;;24.90;52.31;97647.22;4224853;28;5606;-62
2023/09/03 10:44:42;;;;;;;;;;;;;;;24.89;52.15;97646.41;4226684;28;5609;-63
2023/09/03 10:47:00;;;;;;;;;;;;;;;24.91;52.27;97641.53;4229059;28;5594;-63
2023/09/03 10:49:06;;;;;;;;;;;;;;;24.94;52.46;97642.91;4231151;28;5662;-64
2023/09/03 10:51:07;;;;;;;;;;;;;;;24.96;52.29;97640.75;4232666;28;6271;-62
2023/09/03 10:53:10;;;;;;;;;;;;;;;24.96;52.31;97635.34;4236486;28;5853;-64
2023/09/03 10:55:17;;;;;;;;;;;;;;;24.97;52.53;97629.66;4237123;28;5711;-64
2023/09/03 10:57:20;;;;;;;;;;;;;;;25.01;51.94;97637.25;4233534;28;5702;-62
2023/09/03 10:59:23;;;;;;;;;;;;;;;25.02;52.04;97637.00;4236708;28;5809;-63
2023/09/03 11:01:30;;;;;;;;;;;;;;;25.04;51.81;97636.78;4236805;28;5297;-63
2023/09/03 11:03:45;;;;;;;;;;;;;;;25.06;52.12;97634.59;4236527;28;5605;-64
2023/09/03 11:06:16;;;;;;;;;;;;;;;25.06;51.83;97629.19;4229317;28;6025;-64
2023/09/03 11:08:29;;;;;;;;;;;;;;;25.07;51.73;97628.94;4236821;28;5684;-64
2023/09/03 11:10:47;;;;;;;;;;;;;;;25.09;51.65;97634.88;4236692;28;5684;-64
2023/09/03 11:12:48;;;;;;;;;;;;;;;25.10;51.67;97624.88;4229183;28;7784;-63
2023/09/03 11:14:53;;;;;;;;;;;;;;;25.12;51.59;97633.53;4236651;28;5707;-63
2023/09/03 11:16:58;;;;;;;;;;;;;;;25.14;51.17;97623.25;4236538;28;5759;-63
2023/09/03 11:19:04;;;;;;;;;;;;;;;25.14;51.12;97636.78;4230524;28;5663;-64
2023/09/03 11:21:07;;;;;;;;;;;;;;;25.12;51.14;97628.94;4232666;28;5662;-63
2023/09/03 11:23:10;;;;;;;;;;;;;;;25.14;51.66;97642.19;4232136;28;5647;-63
2023/09/03 11:25:12;;;;;;;;;;;;;;;25.14;51.37;97624.09;4236413;28;5587;-62
2023/09/03 11:27:17;;;;;;;;;;;;;;;25.17;51.47;97631.66;4236082;28;5705;-63
2023/09/03 11:29:21;;;;;;;;;;;;;;;25.18;51.51;97635.19;4236365;28;5680;-63
2023/09/03 11:31:24;;;;;;;;;;;;;;;25.19;51.82;97628.69;4232729;28;5685;-64
2023/09/03 11:33:29;;;;;;;;;;;;;;;25.20;52.09;97623.00;4235894;28;5920;-64
2023/09/03 11:35:39;;;;;;;;;;;;;;;25.22;51.93;97618.13;4227870;28;5609;-63
2023/09/03 11:37:42;;;;;;;;;;;;;;;25.23;51.62;97613.53;4227806;28;5598;-63
2023/09/03 11:39:51;;;;;;;;;;;;;;;25.23;51.81;97608.13;4236263;28;5756;-63
2023/09/03 11:41:54;;;;;;;;;;;;;;;25.24;51.69;97615.97;4236319;27;5770;-63
2023/09/03 11:43:58;;;;;;;;;;;;;;;25.28;52.04;97616.28;4236268;28;5740;-63
2023/09/03 11:46:01;;;;;;;;;;;;;;;25.30;51.88;97616.81;4236232;28;5946;-64
2023/09/03 11:48:07;;;;;;;;;;;;;;;25.31;52.09;97625.75;4235997;28;5717;-63
2023/09/03 11:50:11;;;;;;;;;;;;;;;25.30;51.62;97624.13;4235410;28;5721;-62
2023/09/03 11:52:15;;;;;;;;;;;;;;;25.31;51.92;97631.16;4236184;28;5796;-62
2023/09/03 11:54:23;;;;;;;;;;;;;;;25.32;51.89;97625.47;4236139;28;5726;-64
2023/09/03 11:56:30;;;;;;;;;;;;;;;25.32;52.04;97627.38;4236229;28;6468;-62
2023/09/03 11:58:32;;;;;;;;;;;;;;;25.34;51.76;97626.00;4236265;28;5769;-63
2023/09/03 12:00:37;;;;;;;;;;;;;;;25.35;51.96;97630.34;4235983;28;6527;-63
2023/09/03 12:02:40;;;;;;;;;;;;;;;25.35;51.58;97632.22;4235921;28;5750;-63
2023/09/03 12:04:43;;;;;;;;;;;;;;;25.34;51.90;97634.13;4235813;28;5675;-63
2023/09/03 12:06:46;;;;;;;;;;;;;;;25.35;51.92;97638.44;4235894;28;5766;-63
2023/09/03 12:08:49;;;;;;;;;;;;;;;25.35;51.50;97624.94;4235899;27;5627;-63
2023/09/03 12:10:51;;;;;;;;;;;;;;;25.38;51.33;97626.31;4235896;28;6288;-63
2023/09/03 12:12:54;;;;;;;;;;;;;;;25.40;51.61;97634.97;4232025;28;5815;-62
2023/09/03 12:14:57;;;;;;;;;;;;;;;25.39;51.62;97631.44;4234595;28;5684;-63
2023/09/03 12:17:01;;;;;;;;;;;;;;;25.40;51.08;97630.38;4230149;28;6521;-63
2023/09/03 12:19:04;;;;;;;;;;;;;;;25.40;51.23;97627.66;4232544;28;5647;-63
2023/09/03 12:21:08;;;;;;;;;;;;;;;25.40;51.01;97624.13;4235505;27;5068;-63
2023/09/03 12:23:12;;;;;;;;;;;;;;;25.41;50.74;97621.16;4235592;28;5734;-64
2023/09/03 12:25:15;;;;;;;;;;;;;;;25.44;50.78;97622.50;4235171;27;5909;-64
2023/09/03 12:27:18;;;;;;;;;;;;;;;25.44;50.63;97627.94;4235321;28;5597;-65
2023/09/03 12:29:22;;;;;;;;;;;;;;;25.43;50.51;97626.31;4235600;28;5655;-63
2023/09/03 12:31:41;;;;;;;;;;;;;;;25.42;50.79;97628.19;4226775;28;5609;-63
2023/09/03 12:33:48;;;;;;;;;;;;;;;25.44;50.77;97625.22;4223202;28;5597;-66
2023/09/03 12:36:04;;;;;;;;;;;;;;;25.44;50.39;97628.72;4224125;28;5629;-63
2023/09/03 12:38:06;;;;;;;;;;;;;;;25.43;50.67;97629.81;4223855;28;5712;-63
2023/09/03 12:40:10;;;;;;;;;;;;;;;25.44;50.58;97631.44;4223156;28;5673;-64
2023/09/03 12:42:13;;;;;;;;;;;;;;;25.45;50.28;97630.34;4231690;28;5663;-63
2023/09/03 12:44:15;;;;;;;;;;;;;;;25.45;50.46;97619.53;4227989;27;5681;-63
2023/09/03 12:46:18;;;;;;;;;;;;;;;25.47;50.26;97628.19;4226889;28;5625;-63
2023/09/03 12:48:21;;;;;;;;;;;;;;;25.48;50.07;97626.28;4230405;28;5812;-63
2023/09/03 12:50:26;;;;;;;;;;;;;;;25.49;50.21;97627.94;4229670;28;5609;-63
2023/09/03 12:52:29;;;;;;;;;;;;;;;25.49;50.24;97625.25;4228718;28;5677;-63
2023/09/03 12:54:32;;;;;;;;;;;;;;;25.50;49.93;97619.56;4227569;28;5669;-63
2023/09/03 12:56:35;;;;;;;;;;;;;;;25.49;49.97;97617.94;4231084;28;5512;-63
2023/09/03 12:58:38;;;;;;;;;;;;;;;25.50;49.89;97608.72;4229784;28;6590;-63
2023/09/03 13:00:40;;;;;;;;;;;;;;;25.51;50.10;97612.25;4224034;28;5841;-63
2023/09/03 13:02:46;;;;;;;;;;;;;;;25.52;50.20;97609.25;4231889;28;7663;-63
2023/09/03 13:04:49;;;;;;;;;;;;;;;25.53;49.77;97607.38;4228988;28;5590;-63
2023/09/03 13:06:54;;;;;;;;;;;;;;;25.53;49.85;97607.38;4225700;28;5744;-63
2023/09/03 13:08:56;;;;;;;;;;;;;;;25.54;50.25;97601.69;4234783;28;5106;-63
2023/09/03 13:11:00;;;;;;;;;;;;;;;25.55;50.04;97599.78;4234532;28;5749;-63
2023/09/03 13:13:02;;;;;;;;;;;;;;;25.55;49.90;97599.78;4232546;27;5648;-63
2023/09/03 13:15:06;;;;;;;;;;;;;;;25.55;49.99;97606.00;4234340;27;5199;-63
2023/09/03 13:17:09;;;;;;;;;;;;;;;25.56;50.24;97601.41;4231457;28;5685;-63
2023/09/03 13:19:12;;;;;;;;;;;;;;;25.57;50.25;97594.09;4229630;28;5685;-63
2023/09/03 13:21:16;;;;;;;;;;;;;;;25.55;49.90;97597.88;4218460;28;5746;-63
2023/09/03 13:23:20;;;;;;;;;;;;;;;25.57;49.99;97596.81;4227104;28;6383;-63
2023/09/03 13:25:22;;;;;;;;;;;;;;;25.57;49.89;97596.81;4222969;28;5678;-63
2023/09/03 13:27:36;;;;;;;;;;;;;;;25.56;50.13;97593.28;4225791;28;7161;-63
2023/09/03 13:29:40;;;;;;;;;;;;;;;25.57;50.17;97594.09;4226972;28;5589;-63
2023/09/03 13:31:42;;;;;;;;;;;;;;;25.58;50.35;97598.44;4224506;28;5646;-63
2023/09/03 13:33:46;;;;;;;;;;;;;;;25.58;50.31;97598.44;4228835;28;5685;-63
2023/09/03 13:35:52;;;;;;;;;;;;;;;25.58;50.00;97593.00;4224441;28;5643;-63
2023/09/03 13:37:55;;;;;;;;;;;;;;;25.58;49.92;97595.72;4225586;28;5733;-62
2023/09/03 13:39:59;;;;;;;;;;;;;;;25.59;50.09;97594.63;4222030;28;5608;-63
2023/09/03 13:42:02;;;;;;;;;;;;;;;25.60;50.00;97601.69;4231190;28;5805;-63
2023/09/03 13:44:05;;;;;;;;;;;;;;;25.61;50.24;97592.50;4230691;28;5745;-63
2023/09/03 13:46:07;;;;;;;;;;;;;;;25.62;50.09;97583.28;4231000;28;5707;-63
2023/09/03 13:48:11;;;;;;;;;;;;;;;25.64;50.04;97590.06;4221706;28;5792;-63
2023/09/03 13:50:14;;;;;;;;;;;;;;;25.64;50.34;97590.06;4229859;28;5606;-63
2023/09/03 13:52:17;;;;;;;;;;;;;;;25.65;50.21;97582.75;4225254;28;5598;-62
2023/09/03 13:54:20;;;;;;;;;;;;;;;25.63;50.21;97574.88;4225463;28;5609;-63
2023/09/03 13:56:24;;;;;;;;;;;;;;;25.65;50.27;97577.31;4222418;28;5673;-63
2023/09/03 13:58:27;;;;;;;;;;;;;;;25.67;50.14;97570.53;4224739;28;5765;-63
2023/09/03 14:00:30;;;;;;;;;;;;;;;25.67;50.30;97573.25;4225125;28;5708;-82
2023/09/03 14:02:32;;;;;;;;;;;;;;;25.68;50.25;97574.06;4226431;27;5700;-74
2023/09/03 14:04:35;;;;;;;;;;;;;;;25.69;50.39;97568.41;4224787;28;6448;-68
2023/09/03 14:06:38;;;;;;;;;;;;;;;25.70;50.51;97563.81;4225546;28;5936;-68
2023/09/03 14:08:40;;;;;;;;;;;;;;;25.70;50.84;97558.38;4226702;28;6172;-73
2023/09/03 14:10:44;;;;;;;;;;;;;;;25.70;50.52;97567.31;4228365;28;5697;-73
2023/09/03 14:12:48;;;;;;;;;;;;;;;25.71;50.42;97565.41;4223602;28;5877;-69
2023/09/03 14:14:51;;;;;;;;;;;;;;;25.71;50.67;97555.44;4230900;28;5574;-69
2023/09/03 14:16:54;;;;;;;;;;;;;;;25.73;50.62;97558.66;4217617;28;5728;-70
2023/09/03 14:18:57;;;;;;;;;;;;;;;25.71;50.60;97551.88;4228153;28;5973;-69
2023/09/03 14:21:00;;;;;;;;;;;;;;;25.74;50.73;97551.34;4208259;28;5745;-68
2023/09/03 14:23:03;;;;;;;;;;;;;;;25.74;50.67;97554.06;4229073;28;5734;-64
2023/09/03 14:25:07;;;;;;;;;;;;;;;25.74;50.81;97554.88;4231718;28;5673;-64
2023/09/03 14:27:10;;;;;;;;;;;;;;;25.75;50.76;97556.50;4226671;28;5770;-64
2023/09/03 14:29:16;;;;;;;;;;;;;;;25.77;51.25;97554.31;4230564;28;5605;-64
2023/09/03 14:31:19;;;;;;;;;;;;;;;25.79;51.19;97556.75;4226510;28;6744;-64
2023/09/03 14:33:22;;;;;;;;;;;;;;;25.78;51.01;97555.13;4229658;28;5844;-64
2023/09/03 14:35:25;;;;;;;;;;;;;;;25.77;51.29;97556.22;4233618;27;7705;-64
2023/09/03 14:37:28;;;;;;;;;;;;;;;25.78;51.38;97557.84;4227025;28;5704;-64
2023/09/03 14:39:32;;;;;;;;;;;;;;;25.79;51.42;97557.56;4233547;28;5261;-64
2023/09/03 14:41:35;;;;;;;;;;;;;;;25.80;51.49;97561.09;4233618;28;5681;-63
2023/09/03 14:43:38;;;;;;;;;;;;;;;25.81;51.06;97565.41;4226982;28;5722;-64
2023/09/03 14:45:42;;;;;;;;;;;;;;;25.82;51.34;97561.63;4226504;28;5789;-64
2023/09/03 14:47:45;;;;;;;;;;;;;;;25.82;51.49;97557.03;4226984;28;5681;-64
2023/09/03 14:49:48;;;;;;;;;;;;;;;25.81;51.40;97549.97;4226270;28;5689;-64
2023/09/03 14:51:50;;;;;;;;;;;;;;;25.81;51.66;97544.56;4223106;28;5886;-64
2023/09/03 14:53:53;;;;;;;;;;;;;;;25.82;51.38;97551.63;4224647;28;5745;-64
2023/09/03 14:55:56;;;;;;;;;;;;;;;25.84;51.46;97548.66;4228259;28;5608;-64
2023/09/03 14:57:59;;;;;;;;;;;;;;;25.85;51.71;97541.34;4232019;28;5886;-64
2023/09/03 15:00:03;;;;;;;;;;;;;;;25.85;51.66;97550.25;4221409;28;5590;-64
2023/09/03 15:02:07;;;;;;;;;;;;;;;25.83;51.65;97545.13;4226096;28;7667;-67
2023/09/03 15:04:11;;;;;;;;;;;;;;;25.85;51.80;97539.44;4226782;28;5692;-72
2023/09/03 15:06:14;;;;;;;;;;;;;;;25.89;51.51;97540.50;4233845;28;5673;-70
2023/09/03 15:08:17;;;;;;;;;;;;;;;25.96;51.14;97542.94;4231743;28;5844;-64
2023/09/03 15:10:19;;;;;;;;;;;;;;;26.10;49.92;97536.66;4232245;28;5951;-64
2023/09/03 15:12:22;;;;;;;;;;;;;;;26.27;48.80;97538.22;4221381;28;5752;-64
2023/09/03 15:14:25;;;;;;;;;;;;;;;26.47;48.33;97534.69;4222754;28;5764;-64
2023/09/03 15:16:28;;;;;;;;;;;;;;;26.55;48.16;97528.69;4225615;28;5833;-65
2023/09/03 15:18:32;;;;;;;;;;;;;;;26.61;47.96;97530.28;4234538;28;5677;-65
2023/09/03 15:20:35;;;;;;;;;;;;;;;26.72;46.99;97526.44;4233319;28;5972;-65
2023/09/03 15:22:38;;;;;;;;;;;;;;;26.85;46.52;97525.03;4230136;28;6353;-65
2023/09/03 15:24:41;;;;;;;;;;;;;;;26.92;46.44;97525.50;4226173;28;5741;-64
2023/09/03 15:26:44;;;;;;;;;;;;;;;27.02;45.90;97522.75;4226495;28;5617;-63
2023/09/03 15:28:47;;;;;;;;;;;;;;;27.10;45.30;97532.22;4233614;28;5838;-62
2023/09/03 15:30:51;;;;;;;;;;;;;;;27.17;44.77;97519.94;4226574;28;5710;-62
2023/09/03 15:32:54;;;;;;;;;;;;;;;27.23;44.93;97515.31;4225619;28;5601;-62
2023/09/03 15:35:03;;;;;;;;;;;;;;;27.31;44.59;97519.31;4228363;28;5817;-62
2023/09/03 15:37:06;;;;;;;;;;;;;;;27.39;44.47;97515.97;4231428;28;6111;-62
2023/09/03 15:39:07;;;;;;;;;;;;;;;27.41;44.59;97506.47;4230450;27;5670;-62
2023/09/03 15:41:10;;;;;;;;;;;;;;;27.39;44.74;97514.06;4217715;28;5733;-62
2023/09/03 15:43:12;;;;;;;;;;;;;;;27.40;44.55;97504.84;4230357;28;5737;-62
2023/09/03 15:45:15;;;;;;;;;;;;;;;27.45;43.97;97504.00;4229672;28;5666;-61
2023/09/03 15:47:18;;;;;;;;;;;;;;;27.51;43.86;97502.84;4231448;28;5598;-62
2023/09/03 15:49:21;;;;;;;;;;;;;;;27.53;43.83;97497.97;4228062;28;5752;-61
2023/09/03 15:51:25;;;;;;;;;;;;;;;27.54;44.00;97494.97;4230320;28;5813;-62
2023/09/03 15:53:28;;;;;;;;;;;;;;;27.51;43.91;97500.94;4234483;27;5888;-62
2023/09/03 15:55:31;;;;;;;;;;;;;;;27.51;43.89;97495.50;4226189;27;5638;-63
2023/09/03 15:57:34;;;;;;;;;;;;;;;27.54;43.73;97492.25;4219416;28;5823;-63
2023/09/03 15:59:38;;;;;;;;;;;;;;;27.58;43.64;97487.03;4226848;28;5684;-63
2023/09/03 16:01:40;;;;;;;;;;;;;;;27.58;43.81;97492.47;4223497;28;5753;-62
2023/09/03 16:03:44;;;;;;;;;;;;;;;27.60;43.25;97492.19;4223415;28;5621;-63
2023/09/03 16:05:46;;;;;;;;;;;;;;;27.70;42.75;97487.50;4226024;28;5721;-67
2023/09/03 16:07:50;;;;;;;;;;;;;;;27.74;42.55;97488.53;4229631;28;5759;-67
2023/09/03 16:09:53;;;;;;;;;;;;;;;27.76;42.72;97485.56;4213082;28;5960;-69
2023/09/03 16:11:56;;;;;;;;;;;;;;;27.73;42.77;97486.91;4220398;28;5773;-69
2023/09/03 16:13:59;;;;;;;;;;;;;;;27.72;42.59;97488.00;4225760;28;5929;-71
2023/09/03 16:16:06;;;;;;;;;;;;;;;27.70;42.94;97481.25;4231392;28;5724;-69
2023/09/03 16:18:09;;;;;;;;;;;;;;;27.72;42.52;97474.44;4224539;28;5700;-67
2023/09/03 16:20:12;;;;;;;;;;;;;;;27.74;42.60;97483.09;4222311;28;5700;-69
2023/09/03 16:22:15;;;;;;;;;;;;;;;27.74;42.79;97477.66;4222740;28;5834;-68
2023/09/03 16:24:19;;;;;;;;;;;;;;;27.73;42.71;97473.34;4224085;28;5119;-69
2023/09/03 16:26:22;;;;;;;;;;;;;;;27.73;42.32;97477.97;4231441;27;5696;-69
2023/09/03 16:28:25;;;;;;;;;;;;;;;27.71;42.63;97472.00;4232159;28;5597;-68
2023/09/03 16:30:28;;;;;;;;;;;;;;;27.68;42.76;97476.13;4227465;28;6272;-69
2023/09/03 16:32:31;;;;;;;;;;;;;;;27.64;42.68;97475.06;4225826;28;6397;-67
2023/09/03 16:34:34;;;;;;;;;;;;;;;27.62;42.79;97469.06;4225352;28;5860;-66
2023/09/03 16:36:36;;;;;;;;;;;;;;;27.62;42.52;97463.63;4229351;28;5809;-65
2023/09/03 16:38:39;;;;;;;;;;;;;;;27.60;42.56;97460.41;4227392;28;5661;-65
2023/09/03 16:40:43;;;;;;;;;;;;;;;27.56;42.70;97462.09;4224017;28;7327;-65
2023/09/03 16:42:46;;;;;;;;;;;;;;;27.50;42.72;97461.31;4228250;28;5776;-64
2023/09/03 16:44:50;;;;;;;;;;;;;;;27.50;42.55;97461.31;4231407;28;5708;-65
2023/09/03 16:46:53;;;;;;;;;;;;;;;27.51;42.34;97462.91;4232096;28;5597;-62
2023/09/03 16:48:56;;;;;;;;;;;;;;;27.50;42.43;97463.22;4227968;28;5780;-62
2023/09/03 16:50:59;;;;;;;;;;;;;;;27.45;42.56;97457.84;4224998;28;5083;-63
2023/09/03 16:53:02;;;;;;;;;;;;;;;27.39;42.80;97458.97;4224388;28;5717;-63
2023/09/03 16:55:06;;;;;;;;;;;;;;;27.34;42.92;97459.84;4224240;28;5700;-62
2023/09/03 16:57:09;;;;;;;;;;;;;;;27.31;43.10;97457.69;4229299;28;5604;-62
2023/09/03 16:59:12;;;;;;;;;;;;;;;27.26;42.87;97455.00;4228604;28;5756;-64
2023/09/03 17:01:15;;;;;;;;;;;;;;;27.28;42.72;97452.81;4226824;27;5870;-64
2023/09/03 17:03:18;;;;;;;;;;;;;;;27.31;42.50;97449.56;4224843;28;5665;-64
2023/09/03 17:05:22;;;;;;;;;;;;;;;27.30;42.38;97439.78;4221948;27;5688;-64
2023/09/03 17:07:25;;;;;;;;;;;;;;;27.35;42.23;97441.63;4215779;28;5769;-62